首页
METAR-TAF:

METAR-TAF

机场 :

诺福克海军基地

諾福克, 弗吉尼亚州, 美国

纬度: 36-56-01N, 经度: 076-17-45W, 海拔: 4米

当前天气观测

该预报发布于1小时和8分钟前的22:59 UTC
风速11节,风向西,有时为17节阵风
温度 16°C
湿度 42%
气压 1008 hPa
能見度: 16.1公里
少量云层高于28000英尺

METAR: KNGU 172259Z 27011G17KT 10SM FEW280 16/03 A2978 RMK AO2 SLP083 T01610033

时间: 20:07 (00:07 UTC)

预报

预报有效从17日的 23点(UTC)到 18日的 23点(UTC)
风速12节,风向西,有时为20节阵风
能见度10公里或以上
少量云层高于4500英尺
少量云层高于28000英尺
从 18日的 0300点(UTC)
风速11节,风向西北,有时为18节阵风
能见度10公里或以上
天空无云
从 18日的 0700点(UTC)
风速10节,风向西北
能见度10公里或以上
少量云层高于3000英尺
少量云层高于28000英尺

TAF: KNGU 1723/1823 28012G20KT 9999 FEW045 FEW280 530009 QNH2974INS FM180300 31011G18KT 9999 SKC 520009 QNH2985INS FM180700 32010KT 9999 FEW030 FEW280 500000 QNH2988INS T09/1810Z T17/1819Z FN00062

超过4000个机场的气象观测和天气预报(METAR&TAF报告)。

可查询的气象台以黄色和红色小点在地图上表示。

将鼠标移到小点上方,可查看气象台名称。

然后点击查看天气观测和预报。

如需切换地图:点击带黑十字的绿色按钮放大地图;点击带横线的绿色按钮缩小地图;或者点击绿色箭头查看邻近地区的地图。


METAR-TAF: